Vano — SBNM — position and weather

sailwx.info

Track history (hours):
 
Tides and Currents Weather Stations Pressure Air Temp Water Temp Dewpoint Dewpoint Depression Visibility Wind Speed Wind Dir Waves Ship Positions

Vano

Last reported at 2016-Sep-26 13:33 UTC. Time now 2016-Sep-28 05:08 UTC.
Position N 59°21' E 018°14'.

Length 38 m; draft 1.8 m.

Type: Passenger vessel. MMSI: 265520400.

Date/timePositionNaut miles runAvg speedWind from/ knotsBaromVisibWave heightAir tempDewpointWater temp
2016-Sep-26 13:33N 59°21' E 018°14'5 2.6
2016-Sep-26 11:33N 59°20' E 018°05'0 0.0
2016-Sep-26 08:33N 59°20' E 018°05'0 0.0
2016-Sep-26 02:33N 59°20' E 018°05'0 0.0
2016-Sep-26 01:33N 59°20' E 018°05'0 0.0
2016-Sep-26 00:33N 59°20' E 018°05'0 0.0
2016-Sep-25 21:33N 59°20' E 018°05'10 1.4
2016-Sep-25 14:32N 59°24' E 018°21'4 2.3
2016-Sep-25 12:34N 59°21' E 018°14'3 0.7
2016-Sep-25 07:33N 59°23' E 018°20'9 2.9
2016-Sep-25 04:33N 59°20' E 018°04'0 0.0
2016-Sep-25 00:33N 59°20' E 018°04'0 0.0
2016-Sep-24 22:33N 59°20' E 018°04'0 0.0
2016-Sep-24 21:33N 59°20' E 018°04'0 0.0
2016-Sep-24 19:33N 59°20' E 018°04'0 0.0
2016-Sep-24 18:33N 59°20' E 018°04'0 0.0
2016-Sep-24 17:33N 59°20' E 018°04'0 0.4
2016-Sep-24 16:33N 59°19' E 018°05'0 0.0
2016-Sep-24 03:33N 59°20' E 018°04'0 0.0
2016-Sep-24 02:33N 59°20' E 018°04'0 0.0
2016-Sep-24 01:33N 59°20' E 018°04'0 0.0
2016-Sep-24 00:33N 59°20' E 018°04'1 0.2
2016-Sep-23 19:33N 59°19' E 018°06'1 0.0
2016-Sep-23 02:25N 59°20' E 018°05'0 0.0
2016-Sep-23 01:33N 59°20' E 018°05'0 0.0
2016-Sep-23 00:34N 59°20' E 018°05'0 0.0
2016-Sep-22 23:33N 59°20' E 018°05'0 0.0
2016-Sep-22 20:33N 59°20' E 018°05'0 0.0
2016-Sep-22 12:33N 59°20' E 018°05'10 1.3
2016-Sep-22 04:24N 59°23' E 018°24'1 1.6
2016-Sep-22 03:32N 59°24' E 018°21'0 0.0
2016-Sep-22 00:33N 59°24' E 018°21'0 0.0
2016-Sep-21 23:32N 59°24' E 018°21'1 0.2
2016-Sep-21 16:33N 59°23' E 018°20'9 1.2
2016-Sep-21 09:33N 59°20' E 018°05'0 0.0
2016-Sep-21 08:33N 59°20' E 018°05'10 0.2
2016-Sep-19 14:09N 59°24' E 018°21'5 7.7
2016-Sep-19 13:33N 59°21' E 018°15'5 5.3
2016-Sep-19 12:33N 59°20' E 018°05'0 0.0
2016-Sep-19 11:33N 59°20' E 018°05'0 0.0
2016-Sep-19 09:33N 59°20' E 018°05'0 0.0
2016-Sep-19 07:34N 59°20' E 018°05'0 0.0
2016-Sep-19 06:33N 59°20' E 018°05'0 0.0
2016-Sep-19 03:33N 59°20' E 018°05'0 0.0
2016-Sep-19 02:33N 59°20' E 018°05'0 0.0
2016-Sep-19 00:33N 59°20' E 018°05'0 0.0
2016-Sep-18 19:33N 59°20' E 018°05'10 1.9
2016-Sep-18 14:34N 59°24' E 018°21'10 0.8
2016-Sep-18 02:33N 59°20' E 018°04'0 0.0
2016-Sep-18 01:33N 59°20' E 018°04'0 0.0
2016-Sep-18 00:33N 59°20' E 018°04'0 0.0
2016-Sep-17 22:33N 59°20' E 018°04'0 0.0
2016-Sep-17 21:33N 59°20' E 018°04'0 0.0
2016-Sep-17 20:33N 59°20' E 018°04'0 0.0
2016-Sep-17 19:16N 59°20' E 018°04'10 0.8
2016-Sep-17 07:31N 59°24' E 018°21'10 4.9
2016-Sep-17 05:34N 59°20' E 018°05'0 0.0
2016-Sep-17 04:34N 59°20' E 018°05'0 0.0
2016-Sep-17 00:34N 59°20' E 018°05'10 1.1
2016-Sep-16 15:19N 59°23' E 018°23'  
Track history (hours):
 
Tides and Currents Weather Stations Pressure Air Temp Water Temp Dewpoint Dewpoint Depression Visibility Wind Speed Wind Dir Waves Ship Positions

Vano

Last reported at 2016-Sep-26 13:33 UTC. Time now 2016-Sep-28 05:08 UTC.
Position N 59°21' E 018°14'.

Length 38 m; draft 1.8 m.

Type: Passenger vessel. MMSI: 265520400.

Date/timePositionNaut miles runAvg speedWind from/ knotsBaromVisibWave heightAir tempDewpointWater temp
2016-Sep-26 13:33N 59°21' E 018°14'5 2.6
2016-Sep-26 11:33N 59°20' E 018°05'0 0.0
2016-Sep-26 08:33N 59°20' E 018°05'0 0.0
2016-Sep-26 02:33N 59°20' E 018°05'0 0.0
2016-Sep-26 01:33N 59°20' E 018°05'0 0.0
2016-Sep-26 00:33N 59°20' E 018°05'0 0.0
2016-Sep-25 21:33N 59°20' E 018°05'10 1.4
2016-Sep-25 14:32N 59°24' E 018°21'4 2.3
2016-Sep-25 12:34N 59°21' E 018°14'3 0.7
2016-Sep-25 07:33N 59°23' E 018°20'9 2.9
2016-Sep-25 04:33N 59°20' E 018°04'0 0.0
2016-Sep-25 00:33N 59°20' E 018°04'0 0.0
2016-Sep-24 22:33N 59°20' E 018°04'0 0.0
2016-Sep-24 21:33N 59°20' E 018°04'0 0.0
2016-Sep-24 19:33N 59°20' E 018°04'0 0.0
2016-Sep-24 18:33N 59°20' E 018°04'0 0.0
2016-Sep-24 17:33N 59°20' E 018°04'0 0.4
2016-Sep-24 16:33N 59°19' E 018°05'0 0.0
2016-Sep-24 03:33N 59°20' E 018°04'0 0.0
2016-Sep-24 02:33N 59°20' E 018°04'0 0.0
2016-Sep-24 01:33N 59°20' E 018°04'0 0.0
2016-Sep-24 00:33N 59°20' E 018°04'1 0.2
2016-Sep-23 19:33N 59°19' E 018°06'1 0.0
2016-Sep-23 02:25N 59°20' E 018°05'0 0.0
2016-Sep-23 01:33N 59°20' E 018°05'0 0.0
2016-Sep-23 00:34N 59°20' E 018°05'0 0.0
2016-Sep-22 23:33N 59°20' E 018°05'0 0.0
2016-Sep-22 20:33N 59°20' E 018°05'0 0.0
2016-Sep-22 12:33N 59°20' E 018°05'10 1.3
2016-Sep-22 04:24N 59°23' E 018°24'1 1.6
2016-Sep-22 03:32N 59°24' E 018°21'0 0.0
2016-Sep-22 00:33N 59°24' E 018°21'0 0.0
2016-Sep-21 23:32N 59°24' E 018°21'1 0.2
2016-Sep-21 16:33N 59°23' E 018°20'9 1.2
2016-Sep-21 09:33N 59°20' E 018°05'0 0.0
2016-Sep-21 08:33N 59°20' E 018°05'10 0.2
2016-Sep-19 14:09N 59°24' E 018°21'5 7.7
2016-Sep-19 13:33N 59°21' E 018°15'5 5.3
2016-Sep-19 12:33N 59°20' E 018°05'0 0.0
2016-Sep-19 11:33N 59°20' E 018°05'0 0.0
2016-Sep-19 09:33N 59°20' E 018°05'0 0.0
2016-Sep-19 07:34N 59°20' E 018°05'0 0.0
2016-Sep-19 06:33N 59°20' E 018°05'0 0.0
2016-Sep-19 03:33N 59°20' E 018°05'0 0.0
2016-Sep-19 02:33N 59°20' E 018°05'0 0.0
2016-Sep-19 00:33N 59°20' E 018°05'0 0.0
2016-Sep-18 19:33N 59°20' E 018°05'10 1.9
2016-Sep-18 14:34N 59°24' E 018°21'10 0.8
2016-Sep-18 02:33N 59°20' E 018°04'0 0.0
2016-Sep-18 01:33N 59°20' E 018°04'0 0.0
2016-Sep-18 00:33N 59°20' E 018°04'0 0.0
2016-Sep-17 22:33N 59°20' E 018°04'0 0.0
2016-Sep-17 21:33N 59°20' E 018°04'0 0.0
2016-Sep-17 20:33N 59°20' E 018°04'0 0.0
2016-Sep-17 19:16N 59°20' E 018°04'10 0.8
2016-Sep-17 07:31N 59°24' E 018°21'10 4.9
2016-Sep-17 05:34N 59°20' E 018°05'0 0.0
2016-Sep-17 04:34N 59°20' E 018°05'0 0.0
2016-Sep-17 00:34N 59°20' E 018°05'10 1.1
2016-Sep-16 15:19N 59°23' E 018°23'  

Dump ship's entire track history